createdAt,value
2023-03-17T00:01:18.517Z,1248.00
2023-03-17T00:05:18.504Z,1394.00
2023-03-17T00:09:18.432Z,1262.00
2023-03-17T00:13:18.447Z,1247.00
2023-03-17T00:17:18.606Z,1178.00
2023-03-17T00:21:18.954Z,1171.00
2023-03-17T00:25:18.806Z,940.00
2023-03-17T00:29:19.004Z,1109.00
2023-03-17T00:33:18.999Z,1007.00
2023-03-17T00:37:19.111Z,876.00
2023-03-17T00:41:19.241Z,921.00
2023-03-17T00:45:19.431Z,1032.00
2023-03-17T00:49:19.397Z,960.00
2023-03-17T00:53:19.343Z,887.00
2023-03-17T00:57:19.378Z,980.00
2023-03-17T01:01:19.342Z,893.00
2023-03-17T01:05:19.250Z,960.00
2023-03-17T01:09:19.281Z,1037.00
2023-03-17T01:13:19.267Z,918.00
2023-03-17T01:17:19.112Z,987.00
2023-03-17T01:21:19.230Z,845.00
2023-03-17T01:25:19.063Z,624.00
2023-03-17T01:29:19.144Z,698.00
2023-03-17T01:33:19.024Z,693.00
2023-03-17T01:37:19.006Z,704.00
2023-03-17T01:41:18.970Z,623.00
2023-03-17T01:45:18.990Z,664.00
2023-03-17T01:49:18.888Z,624.00
2023-03-17T01:53:18.844Z,657.00
2023-03-17T01:57:18.783Z,587.00
2023-03-17T02:01:18.819Z,626.00
2023-03-17T02:05:18.766Z,557.00
2023-03-17T02:09:18.697Z,628.00
2023-03-17T02:13:18.647Z,630.00
2023-03-17T02:17:18.610Z,864.00
2023-03-17T02:21:18.666Z,618.00
2023-03-17T02:28:58.464Z,500.00
2023-03-17T02:32:58.458Z,572.00
2023-03-17T02:36:58.439Z,476.00
2023-03-17T02:40:58.353Z,487.00
2023-03-17T02:44:58.297Z,612.00
2023-03-17T02:48:58.281Z,787.00
2023-03-17T02:52:58.217Z,765.00
2023-03-17T02:56:58.211Z,757.00
2023-03-17T03:00:58.173Z,1008.00
2023-03-17T03:04:58.127Z,1056.00
2023-03-17T03:08:58.090Z,1041.00
2023-03-17T03:12:58.072Z,914.00
2023-03-17T03:16:58.013Z,835.00
2023-03-17T03:20:58.102Z,860.00
2023-03-17T03:24:57.981Z,660.00
2023-03-17T03:28:57.921Z,721.00
2023-03-17T03:32:58.067Z,743.00
2023-03-17T03:36:57.907Z,891.00
2023-03-17T03:40:57.965Z,793.00
2023-03-17T03:44:58.098Z,656.00
2023-03-17T03:48:58.207Z,721.00
2023-03-17T03:52:58.314Z,1131.00
2023-03-17T03:56:58.499Z,845.00
2023-03-17T04:00:58.672Z,843.00
2023-03-17T04:04:58.828Z,817.00
2023-03-17T04:08:58.916Z,706.00
2023-03-17T04:12:59.085Z,793.00
2023-03-17T04:16:59.034Z,838.00
2023-03-17T04:20:59.017Z,767.00
2023-03-17T04:24:58.984Z,932.00
2023-03-17T04:28:58.941Z,812.00
2023-03-17T04:32:58.984Z,822.00
2023-03-17T04:36:59.178Z,914.00
2023-03-17T04:40:58.894Z,812.00
2023-03-17T04:44:58.893Z,563.00
2023-03-17T04:48:58.728Z,607.00
2023-03-17T04:52:58.729Z,771.00
2023-03-17T04:56:58.682Z,750.00
2023-03-17T05:00:58.849Z,614.00
2023-03-17T05:04:58.998Z,581.00
2023-03-17T05:08:59.151Z,568.00
2023-03-17T05:12:59.317Z,556.00
2023-03-17T05:16:59.462Z,714.00
2023-03-17T05:20:59.571Z,1045.00
2023-03-17T05:24:59.693Z,969.00
2023-03-17T05:28:59.930Z,990.00
2023-03-17T05:32:59.930Z,1090.00
2023-03-17T05:36:59.830Z,1212.00
2023-03-17T05:40:59.820Z,1198.00
2023-03-17T05:44:59.791Z,1192.00
2023-03-17T05:48:59.750Z,1121.00
2023-03-17T05:52:59.684Z,1491.00
2023-03-17T05:56:59.676Z,1216.00
2023-03-17T06:00:59.647Z,1361.00
2023-03-17T06:04:59.611Z,1558.00
2023-03-17T06:08:59.673Z,1487.00
2023-03-17T06:12:59.521Z,1337.00
2023-03-17T06:16:59.607Z,1336.00
2023-03-17T06:20:59.696Z,1085.00
2023-03-17T06:24:59.704Z,949.00
2023-03-17T06:28:59.756Z,1307.00
2023-03-17T06:32:59.782Z,1446.00
2023-03-17T06:36:59.962Z,1608.00
2023-03-17T06:40:59.893Z,1581.00
2023-03-17T06:44:59.987Z,1314.00
2023-03-17T06:49:00.067Z,1113.00
2023-03-17T06:53:00.114Z,1265.00
2023-03-17T06:57:00.094Z,1552.00
2023-03-17T07:01:00.099Z,1591.00
2023-03-17T07:05:00.380Z,1304.00
2023-03-17T07:09:02.171Z,1518.00
2023-03-17T07:13:00.265Z,1534.00
2023-03-17T07:17:00.313Z,1554.00
2023-03-17T07:21:00.701Z,1230.00
2023-03-17T07:25:00.725Z,1333.00
2023-03-17T07:29:00.882Z,1081.00
2023-03-17T07:33:00.923Z,1235.00
2023-03-17T07:37:01.096Z,1694.00
2023-03-17T07:41:00.965Z,1261.00
2023-03-17T07:45:00.976Z,935.00
2023-03-17T07:49:01.158Z,1413.00
2023-03-17T07:53:01.102Z,1084.00
2023-03-17T07:57:01.263Z,915.00
2023-03-17T08:01:01.228Z,1199.00
2023-03-17T08:05:01.104Z,967.00
2023-03-17T08:09:01.235Z,881.00
2023-03-17T08:13:01.338Z,783.00
2023-03-17T08:17:01.312Z,568.00
2023-03-17T08:21:01.269Z,520.00
2023-03-17T08:25:01.257Z,663.00
2023-03-17T08:29:01.186Z,623.00
2023-03-17T08:33:01.234Z,986.00
2023-03-17T08:37:01.074Z,450.00
2023-03-17T08:41:01.099Z,578.00
2023-03-17T08:45:01.013Z,965.00
2023-03-17T08:49:01.023Z,1171.00
2023-03-17T08:53:00.977Z,548.00
2023-03-17T08:57:00.914Z,507.00
2023-03-17T09:01:00.890Z,726.00
2023-03-17T09:05:00.864Z,560.00
2023-03-17T09:09:00.808Z,546.00
2023-03-17T09:13:00.827Z,475.00
2023-03-17T09:17:01.032Z,583.00
2023-03-17T09:21:01.183Z,834.00
2023-03-17T09:25:01.062Z,1210.00
2023-03-17T09:29:03.739Z,1079.00
2023-03-17T09:33:01.196Z,1135.00
2023-03-17T09:37:01.082Z,766.00
2023-03-17T09:41:01.043Z,927.00
2023-03-17T09:45:01.015Z,1043.00
2023-03-17T09:49:01.000Z,1192.00
2023-03-17T09:53:03.726Z,1014.00
2023-03-17T09:57:00.892Z,575.00
2023-03-17T10:01:00.832Z,649.00
2023-03-17T10:05:00.884Z,1080.00
2023-03-17T10:09:00.969Z,1020.00
2023-03-17T10:13:00.832Z,558.00
2023-03-17T10:17:00.723Z,563.00
2023-03-17T10:21:00.739Z,725.00
2023-03-17T10:25:03.151Z,778.00
2023-03-17T10:29:00.793Z,787.00
2023-03-17T10:33:00.630Z,1310.00
2023-03-17T10:37:00.593Z,629.00
2023-03-17T10:41:00.570Z,747.00
2023-03-17T10:45:00.490Z,823.00
2023-03-17T10:49:00.486Z,595.00
2023-03-17T10:53:00.459Z,583.00
2023-03-17T10:57:00.374Z,1014.00
2023-03-17T11:01:00.470Z,1040.00
2023-03-17T11:05:00.316Z,882.00
2023-03-17T11:09:00.314Z,470.00
2023-03-17T11:13:00.244Z,1440.00
2023-03-17T11:17:00.267Z,817.00
2023-03-17T11:21:00.179Z,809.00
2023-03-17T11:25:00.219Z,1088.00
2023-03-17T11:29:00.227Z,675.00
2023-03-17T11:33:00.392Z,1308.00
2023-03-17T11:37:00.392Z,1623.00
2023-03-17T11:41:00.518Z,975.00
2023-03-17T11:45:00.742Z,932.00
2023-03-17T11:49:00.962Z,1304.00
2023-03-17T11:53:01.038Z,1175.00
2023-03-17T11:57:01.218Z,623.00
2023-03-17T12:01:01.264Z,1288.00
2023-03-17T12:05:01.339Z,1357.00
2023-03-17T12:09:01.377Z,1683.00
2023-03-17T12:13:01.407Z,1060.00
2023-03-17T12:17:01.625Z,1083.00
2023-03-17T12:21:01.816Z,1687.00
2023-03-17T12:25:01.952Z,1539.00
2023-03-17T12:29:02.208Z,1896.00
2023-03-17T12:33:02.120Z,2092.00
2023-03-17T12:37:02.368Z,1797.00
2023-03-17T12:41:02.413Z,2565.00
2023-03-17T12:45:02.672Z,1595.00
2023-03-17T12:49:02.808Z,1841.00
2023-03-17T12:53:02.931Z,2081.00
2023-03-17T12:57:02.957Z,1621.00
2023-03-17T13:01:02.861Z,2269.00
2023-03-17T13:05:02.834Z,2145.00
2023-03-17T13:09:02.930Z,2269.00
2023-03-17T13:13:02.803Z,1329.00
2023-03-17T13:17:02.678Z,1597.00
2023-03-17T13:21:02.683Z,1953.00
2023-03-17T13:25:02.690Z,1320.00
2023-03-17T13:29:02.628Z,1857.00
2023-03-17T13:33:02.648Z,1933.00
2023-03-17T13:37:02.614Z,1416.00
2023-03-17T13:41:02.610Z,1599.00
2023-03-17T13:45:02.691Z,1210.00
2023-03-17T13:49:02.886Z,1524.00
2023-03-17T13:53:03.106Z,1353.00
2023-03-17T13:57:03.179Z,1408.00
2023-03-17T14:01:14.425Z,2374.00
2023-03-17T14:05:03.301Z,1937.00
2023-03-17T14:09:03.269Z,1924.00
2023-03-17T14:13:03.196Z,1392.00
2023-03-17T14:17:03.367Z,1946.00
2023-03-17T14:21:04.684Z,1969.00
2023-03-17T14:25:03.443Z,1793.00
2023-03-17T14:29:03.436Z,1547.00
2023-03-17T14:33:03.394Z,1680.00
2023-03-17T14:37:03.267Z,1626.00
2023-03-17T14:41:03.248Z,1770.00
2023-03-17T14:45:03.217Z,1372.00
2023-03-17T14:49:03.176Z,1452.00
2023-03-17T14:53:03.187Z,1764.00
2023-03-17T14:57:03.247Z,1462.00
2023-03-17T15:01:03.110Z,1581.00
2023-03-17T15:05:02.973Z,1854.00
2023-03-17T15:09:03.173Z,865.00
2023-03-17T15:13:03.122Z,1574.00
2023-03-17T15:17:03.044Z,1094.00
2023-03-17T15:21:02.904Z,1245.00
2023-03-17T15:25:02.891Z,1126.00
2023-03-17T15:29:02.852Z,1599.00
2023-03-17T15:33:03.024Z,1330.00
2023-03-17T15:37:03.082Z,1522.00
2023-03-17T15:41:03.191Z,1411.00
2023-03-17T15:45:03.244Z,1089.00
2023-03-17T15:49:03.290Z,1165.00
2023-03-17T15:53:03.412Z,910.00
2023-03-17T15:57:03.529Z,915.00
2023-03-17T16:01:03.648Z,1279.00
2023-03-17T16:05:03.752Z,1546.00
2023-03-17T16:09:04.006Z,917.00
2023-03-17T16:13:03.997Z,1091.00
2023-03-17T16:17:04.230Z,1008.00
2023-03-17T16:21:04.100Z,1167.00
2023-03-17T16:25:04.304Z,1274.00
2023-03-17T16:29:06.215Z,665.00
2023-03-17T16:33:04.618Z,927.00
2023-03-17T16:37:04.569Z,679.00
2023-03-17T16:41:04.315Z,1258.00
2023-03-17T16:45:04.289Z,685.00
2023-03-17T16:49:04.319Z,679.00
2023-03-17T16:53:04.244Z,883.00
2023-03-17T16:57:06.052Z,1315.00
2023-03-17T17:01:04.144Z,918.00
2023-03-17T17:05:04.164Z,1364.00
2023-03-17T17:09:04.102Z,927.00
2023-03-17T17:13:05.914Z,1042.00
2023-03-17T17:17:03.975Z,1239.00
2023-03-17T17:21:03.978Z,1359.00
2023-03-17T17:25:03.936Z,552.00
2023-03-17T17:29:03.916Z,1007.00
2023-03-17T17:33:03.841Z,1056.00
2023-03-17T17:37:03.822Z,1396.00
2023-03-17T17:41:03.747Z,1586.00
2023-03-17T17:45:03.756Z,1845.00
2023-03-17T17:49:03.696Z,1382.00
2023-03-17T17:53:03.671Z,1073.00
2023-03-17T17:57:03.747Z,1022.00
2023-03-17T18:01:03.673Z,987.00
2023-03-17T18:05:03.743Z,1322.00
2023-03-17T18:09:03.860Z,770.00
2023-03-17T18:13:03.961Z,1186.00
2023-03-17T18:17:04.142Z,745.00
2023-03-17T18:21:04.328Z,822.00
2023-03-17T18:25:04.465Z,927.00
2023-03-17T18:29:04.703Z,612.00
2023-03-17T18:33:04.763Z,1072.00
2023-03-17T18:37:04.628Z,797.00
2023-03-17T18:41:04.615Z,601.00
2023-03-17T18:45:04.540Z,455.00
2023-03-17T18:49:04.454Z,2226.00
2023-03-17T18:53:04.521Z,1117.00
2023-03-17T18:57:04.405Z,959.00
2023-03-17T19:01:04.462Z,1601.00
2023-03-17T19:05:04.353Z,1678.00
2023-03-17T19:09:04.290Z,1481.00
2023-03-17T19:13:04.241Z,1681.00
2023-03-17T19:17:04.240Z,1469.00
2023-03-17T19:21:04.200Z,1376.00
2023-03-17T19:25:04.121Z,1328.00
2023-03-17T19:29:04.104Z,1775.00
2023-03-17T19:33:04.213Z,1014.00
2023-03-17T19:37:04.045Z,1549.00
2023-03-17T19:41:03.993Z,1523.00
2023-03-17T19:45:03.979Z,610.00
2023-03-17T19:49:04.075Z,538.00
2023-03-17T19:53:04.228Z,772.00
2023-03-17T19:57:04.290Z,594.00
2023-03-17T20:01:04.358Z,828.00
2023-03-17T20:13:53.715Z,500.00
2023-03-17T20:17:43.503Z,500.00
2023-03-17T20:21:43.364Z,549.00
2023-03-17T20:25:43.372Z,426.00
2023-03-17T20:29:43.294Z,987.00
2023-03-17T20:33:43.299Z,730.00
2023-03-17T20:37:43.251Z,1411.00
2023-03-17T20:41:43.274Z,1510.00
2023-03-17T20:45:43.302Z,1746.00
2023-03-17T20:49:43.483Z,881.00
2023-03-17T20:53:43.526Z,1477.00
2023-03-17T20:57:43.469Z,1305.00
2023-03-17T21:01:43.516Z,994.00
2023-03-17T21:05:43.371Z,1461.00
2023-03-17T21:09:43.371Z,793.00
2023-03-17T21:13:43.350Z,1047.00
2023-03-17T21:17:43.270Z,1202.00
2023-03-17T21:21:43.290Z,1105.00
2023-03-17T21:25:43.208Z,843.00
2023-03-17T21:29:43.136Z,807.00
2023-03-17T21:33:43.092Z,1023.00
2023-03-17T21:37:43.228Z,1403.00
2023-03-17T21:41:42.995Z,1433.00
2023-03-17T21:45:43.037Z,1572.00
2023-03-17T21:49:42.984Z,1546.00
2023-03-17T21:53:42.881Z,1752.00
2023-03-17T21:57:42.853Z,1662.00
2023-03-17T22:01:43.130Z,1691.00
2023-03-17T22:05:42.997Z,1680.00
2023-03-17T22:09:42.978Z,1546.00
2023-03-17T22:13:43.059Z,1116.00
2023-03-17T22:17:43.050Z,1155.00
2023-03-17T22:21:42.897Z,1129.00
2023-03-17T22:25:42.997Z,1139.00
2023-03-17T22:29:43.015Z,1236.00
2023-03-17T22:33:42.809Z,1384.00
2023-03-17T22:37:42.728Z,1390.00
2023-03-17T22:41:42.712Z,1391.00
2023-03-17T22:45:42.734Z,1268.00
2023-03-17T22:49:42.645Z,1289.00
2023-03-17T22:53:42.617Z,1417.00
2023-03-17T22:57:42.564Z,1545.00
2023-03-17T23:01:42.533Z,1504.00
2023-03-17T23:05:42.480Z,1389.00
2023-03-17T23:09:42.550Z,1289.00
2023-03-17T23:13:42.780Z,1209.00
2023-03-17T23:17:42.695Z,1031.00
2023-03-17T23:21:42.688Z,797.00
2023-03-17T23:25:42.639Z,958.00
2023-03-17T23:29:42.607Z,1208.00
2023-03-17T23:33:42.570Z,1475.00
2023-03-17T23:37:42.574Z,1544.00
2023-03-17T23:41:42.443Z,2733.00
2023-03-17T23:45:42.542Z,2604.00
2023-03-17T23:49:42.477Z,2006.00
2023-03-17T23:53:42.398Z,1573.00
2023-03-17T23:57:42.337Z,1407.00
